Time;durP1;ratioP1;P1;durP2;ratioP2;P2;SDS_P1;SDS_P2;PMS_P1;PMS_P2;Temp;Humidity;BMP_temperature;BMP_pressure;BME280_temperature;BME280_humidity;BME280_pressure;Samples;Min_cycle;Max_cycle;Signal;HPM_P1;HPM_P2
2022/02/15 00:01:09;;;;;;;41.78;21.20;;;;;;;;;;5013415;28;20044;-64
2022/02/15 00:03:35;;;;;;;37.90;21.60;;;;;;;;;;5013477;28;20080;-64
2022/02/15 00:06:01;;;;;;;37.53;21.50;;;;;;;;;;5013232;28;20026;-64
2022/02/15 00:08:27;;;;;;;35.10;20.42;;;;;;;;;;5013223;28;20029;-65
2022/02/15 00:10:53;;;;;;;36.40;20.63;;;;;;;;;;5013409;28;20386;-64
2022/02/15 00:13:19;;;;;;;37.30;19.75;;;;;;;;;;5012920;28;20061;-64
2022/02/15 00:15:45;;;;;;;35.83;20.02;;;;;;;;;;5012405;28;20026;-64
2022/02/15 00:18:12;;;;;;;32.65;19.45;;;;;;;;;;5013060;28;20034;-64
2022/02/15 00:20:38;;;;;;;33.67;19.25;;;;;;;;;;5013012;28;20026;-65
2022/02/15 00:23:04;;;;;;;33.65;19.13;;;;;;;;;;5012811;28;20025;-64
2022/02/15 00:25:30;;;;;;;37.80;19.75;;;;;;;;;;5012962;28;20044;-65
2022/02/15 00:27:56;;;;;;;33.47;18.90;;;;;;;;;;5012882;28;20034;-65
2022/02/15 00:30:22;;;;;;;34.85;20.08;;;;;;;;;;5012997;28;20018;-65
2022/02/15 00:32:49;;;;;;;34.45;20.52;;;;;;;;;;5012895;28;20542;-64
2022/02/15 00:35:15;;;;;;;34.03;18.92;;;;;;;;;;5012824;28;20026;-65
2022/02/15 00:37:41;;;;;;;37.17;20.20;;;;;;;;;;5012640;28;20029;-64
2022/02/15 00:40:08;;;;;;;37.28;20.75;;;;;;;;;;5012672;28;20129;-64
2022/02/15 00:42:34;;;;;;;34.13;19.05;;;;;;;;;;5012409;28;20100;-66
2022/02/15 00:45:00;;;;;;;34.63;18.65;;;;;;;;;;5012176;28;20514;-64
2022/02/15 00:47:26;;;;;;;34.90;19.10;;;;;;;;;;5012581;28;20454;-64
2022/02/15 00:49:53;;;;;;;39.25;21.27;;;;;;;;;;5012396;28;20030;-64
2022/02/15 00:52:19;;;;;;;39.22;21.05;;;;;;;;;;5012454;28;20022;-65
2022/02/15 00:54:45;;;;;;;44.10;21.25;;;;;;;;;;5012229;28;20088;-64
2022/02/15 00:57:11;;;;;;;43.15;22.92;;;;;;;;;;5012128;28;20037;-65
2022/02/15 00:59:38;;;;;;;43.45;24.02;;;;;;;;;;5011894;28;20116;-66
2022/02/15 01:02:04;;;;;;;44.95;24.02;;;;;;;;;;5012254;28;20036;-64
2022/02/15 01:04:30;;;;;;;47.03;23.92;;;;;;;;;;5012449;28;20080;-65
2022/02/15 01:06:56;;;;;;;39.33;21.55;;;;;;;;;;5012263;28;20030;-66
2022/02/15 01:09:22;;;;;;;42.40;22.48;;;;;;;;;;5012060;28;20029;-64
2022/02/15 01:11:48;;;;;;;36.20;20.20;;;;;;;;;;5012188;28;20025;-65
2022/02/15 01:14:15;;;;;;;35.63;19.58;;;;;;;;;;5012031;28;20057;-66
2022/02/15 01:16:41;;;;;;;36.40;19.20;;;;;;;;;;5012060;28;20123;-65
2022/02/15 01:19:07;;;;;;;35.08;19.42;;;;;;;;;;5011993;28;20041;-64
2022/02/15 01:21:33;;;;;;;36.38;19.55;;;;;;;;;;5011979;28;20087;-65
2022/02/15 01:23:59;;;;;;;34.80;19.25;;;;;;;;;;5011973;28;20103;-66
2022/02/15 01:26:25;;;;;;;33.25;19.17;;;;;;;;;;5011681;28;20025;-64
2022/02/15 01:28:51;;;;;;;35.60;20.35;;;;;;;;;;5011891;28;20379;-64
2022/02/15 01:31:17;;;;;;;38.13;19.52;;;;;;;;;;5011794;28;20433;-66
2022/02/15 01:33:43;;;;;;;37.22;20.38;;;;;;;;;;5011928;28;20406;-64
2022/02/15 01:36:09;;;;;;;36.75;19.98;;;;;;;;;;5011570;28;20476;-64
2022/02/15 01:38:35;;;;;;;37.28;20.23;;;;;;;;;;5010516;28;20574;-64
2022/02/15 01:41:01;;;;;;;33.55;18.63;;;;;;;;;;5011719;28;20062;-64
2022/02/15 01:43:27;;;;;;;34.78;18.75;;;;;;;;;;5011705;28;20029;-65
2022/02/15 01:45:53;;;;;;;37.05;19.75;;;;;;;;;;5011842;28;20042;-66
2022/02/15 01:48:20;;;;;;;34.95;18.77;;;;;;;;;;5011809;28;20061;-64
2022/02/15 01:50:46;;;;;;;32.35;18.75;;;;;;;;;;5011307;28;20433;-67
2022/02/15 01:53:12;;;;;;;33.28;19.63;;;;;;;;;;5011729;28;20478;-64
2022/02/15 01:55:38;;;;;;;29.98;17.92;;;;;;;;;;5011469;28;20131;-64
2022/02/15 01:58:05;;;;;;;32.55;18.85;;;;;;;;;;5011386;28;20137;-64
2022/02/15 02:00:31;;;;;;;33.22;18.77;;;;;;;;;;5011602;28;20025;-64
2022/02/15 02:02:57;;;;;;;30.73;18.23;;;;;;;;;;5011017;28;20026;-66
2022/02/15 02:08:09;;;;;;;30.40;17.67;;;;;;;;;;5011232;28;20386;-66
2022/02/15 02:10:35;;;;;;;28.65;16.77;;;;;;;;;;5011358;28;20017;-65
2022/02/15 02:13:02;;;;;;;31.25;17.65;;;;;;;;;;5011157;28;20804;-66
2022/02/15 02:15:28;;;;;;;30.05;17.38;;;;;;;;;;5011409;28;20041;-64
2022/02/15 02:17:54;;;;;;;33.33;17.58;;;;;;;;;;5011080;28;20117;-64
2022/02/15 02:20:21;;;;;;;31.67;18.25;;;;;;;;;;5010952;28;20529;-64
2022/02/15 02:22:47;;;;;;;32.92;20.05;;;;;;;;;;5011086;28;20080;-65
2022/02/15 02:25:15;;;;;;;37.47;20.85;;;;;;;;;;5011233;28;20068;-65
2022/02/15 02:27:41;;;;;;;37.35;20.98;;;;;;;;;;5011223;28;20053;-66
2022/02/15 02:30:08;;;;;;;32.80;19.80;;;;;;;;;;5011179;28;20040;-66
2022/02/15 02:32:34;;;;;;;39.35;20.45;;;;;;;;;;5011085;28;20105;-64
2022/02/15 02:35:01;;;;;;;39.42;20.10;;;;;;;;;;5011154;28;20446;-65
2022/02/15 02:37:28;;;;;;;35.53;19.65;;;;;;;;;;5011078;28;20054;-66
2022/02/15 02:39:54;;;;;;;36.92;20.38;;;;;;;;;;5014726;28;20034;-64
2022/02/15 02:42:24;;;;;;;31.83;19.10;;;;;;;;;;5015207;28;20022;-68
2022/02/15 02:44:50;;;;;;;35.17;19.20;;;;;;;;;;5014437;28;20022;-68
2022/02/15 02:47:16;;;;;;;32.45;18.98;;;;;;;;;;5015196;28;20034;-64
2022/02/15 02:49:42;;;;;;;32.20;18.95;;;;;;;;;;5014958;28;20022;-66
2022/02/15 02:52:08;;;;;;;35.13;19.27;;;;;;;;;;5014559;28;20022;-64
2022/02/15 02:54:34;;;;;;;36.33;19.50;;;;;;;;;;5015037;28;20032;-63
2022/02/15 02:57:01;;;;;;;32.50;18.48;;;;;;;;;;5014635;28;20026;-64
2022/02/15 02:59:28;;;;;;;33.72;18.83;;;;;;;;;;5014399;28;20112;-64
2022/02/15 03:01:54;;;;;;;32.80;19.27;;;;;;;;;;5015742;28;20022;-65
2022/02/15 03:04:20;;;;;;;33.28;18.75;;;;;;;;;;5016192;28;20129;-64
2022/02/15 03:06:47;;;;;;;31.65;19.17;;;;;;;;;;5014999;28;20104;-64
2022/02/15 03:09:13;;;;;;;34.45;19.02;;;;;;;;;;5014442;28;20034;-65
2022/02/15 03:11:39;;;;;;;36.28;20.35;;;;;;;;;;5014264;28;20030;-64
2022/02/15 03:14:05;;;;;;;35.33;18.83;;;;;;;;;;5014299;28;20018;-65
2022/02/15 03:16:31;;;;;;;36.53;19.75;;;;;;;;;;5014518;28;20033;-64
2022/02/15 03:18:58;;;;;;;35.90;19.33;;;;;;;;;;5014169;28;20057;-64
2022/02/15 03:21:24;;;;;;;35.13;19.95;;;;;;;;;;5014455;28;20033;-64
2022/02/15 03:23:50;;;;;;;31.92;19.20;;;;;;;;;;5014300;28;20497;-65
2022/02/15 03:26:16;;;;;;;34.72;19.67;;;;;;;;;;5014388;28;20029;-65
2022/02/15 03:28:42;;;;;;;30.55;19.58;;;;;;;;;;5014109;28;20057;-66
2022/02/15 03:31:08;;;;;;;34.70;19.08;;;;;;;;;;5014319;28;20022;-65
2022/02/15 03:33:34;;;;;;;35.38;19.73;;;;;;;;;;5014131;28;20018;-64
2022/02/15 03:36:01;;;;;;;33.15;18.75;;;;;;;;;;5014269;28;20026;-64
2022/02/15 03:38:27;;;;;;;33.13;18.60;;;;;;;;;;5013951;28;20037;-64
2022/02/15 03:43:38;;;;;;;31.45;18.58;;;;;;;;;;5013818;28;20041;-64
2022/02/15 03:46:04;;;;;;;30.30;17.98;;;;;;;;;;5013565;28;20141;-64
2022/02/15 03:48:31;;;;;;;32.63;19.10;;;;;;;;;;5013741;28;20088;-65
2022/02/15 03:50:57;;;;;;;29.33;18.88;;;;;;;;;;5012220;28;20171;-64
2022/02/15 03:53:23;;;;;;;33.35;19.23;;;;;;;;;;5013589;28;20035;-66
2022/02/15 03:55:49;;;;;;;35.75;19.15;;;;;;;;;;5013621;28;20528;-64
2022/02/15 03:58:15;;;;;;;34.60;19.45;;;;;;;;;;5013413;28;20048;-65
2022/02/15 04:00:42;;;;;;;33.30;19.10;;;;;;;;;;5013364;28;20025;-64
2022/02/15 04:03:08;;;;;;;34.55;19.95;;;;;;;;;;5013163;28;20375;-65
2022/02/15 04:05:34;;;;;;;38.63;21.08;;;;;;;;;;5013188;28;20115;-64
2022/02/15 04:08:00;;;;;;;34.00;20.90;;;;;;;;;;5013299;28;20041;-64
2022/02/15 04:10:26;;;;;;;35.83;20.25;;;;;;;;;;5013210;28;20037;-65
2022/02/15 04:12:52;;;;;;;33.03;20.40;;;;;;;;;;5013290;28;20101;-64
2022/02/15 04:15:19;;;;;;;34.40;19.95;;;;;;;;;;5013053;28;20393;-66
2022/02/15 04:17:45;;;;;;;33.63;20.08;;;;;;;;;;5013195;28;20194;-66
2022/02/15 04:20:12;;;;;;;33.05;19.95;;;;;;;;;;5013254;28;20057;-64
2022/02/15 04:22:39;;;;;;;35.28;20.42;;;;;;;;;;5012912;28;20116;-64
2022/02/15 04:25:05;;;;;;;34.10;19.67;;;;;;;;;;5013326;28;20029;-64
2022/02/15 04:27:31;;;;;;;41.40;21.48;;;;;;;;;;5013201;28;20029;-64
2022/02/15 04:29:57;;;;;;;35.78;19.98;;;;;;;;;;5013008;28;20065;-65
2022/02/15 04:32:23;;;;;;;31.88;19.80;;;;;;;;;;5013030;28;20497;-64
2022/02/15 04:34:50;;;;;;;34.75;19.48;;;;;;;;;;5012908;28;20057;-64
2022/02/15 04:37:16;;;;;;;34.55;19.38;;;;;;;;;;5012773;28;20029;-64
2022/02/15 04:39:42;;;;;;;35.45;19.73;;;;;;;;;;5011388;28;20565;-64
2022/02/15 04:42:08;;;;;;;38.67;19.60;;;;;;;;;;5012743;28;20396;-64
2022/02/15 04:44:34;;;;;;;34.60;20.77;;;;;;;;;;5012812;28;20030;-66
2022/02/15 04:47:00;;;;;;;33.67;18.70;;;;;;;;;;5012580;28;20054;-64
2022/02/15 04:49:27;;;;;;;38.00;21.40;;;;;;;;;;5012846;28;20033;-64
2022/02/15 04:51:54;;;;;;;39.88;21.98;;;;;;;;;;5012721;28;20429;-64
2022/02/15 04:54:22;;;;;;;45.35;24.17;;;;;;;;;;5012850;28;20025;-64
2022/02/15 04:56:48;;;;;;;39.70;23.77;;;;;;;;;;5012576;28;20530;-65
2022/02/15 04:59:14;;;;;;;44.95;23.95;;;;;;;;;;5012500;28;20124;-65
2022/02/15 05:01:40;;;;;;;42.40;23.25;;;;;;;;;;5011962;28;20032;-64
2022/02/15 05:04:48;;;;;;;38.45;21.77;;;;;;;;;;5012533;28;20108;-65
2022/02/15 05:06:52;;;;;;;39.50;22.70;;;;;;;;;;5012309;28;20026;-65
2022/02/15 05:09:18;;;;;;;38.85;20.95;;;;;;;;;;5012261;28;20041;-65
2022/02/15 05:11:44;;;;;;;35.28;20.58;;;;;;;;;;5012111;28;20029;-64
2022/02/15 05:14:10;;;;;;;34.72;19.48;;;;;;;;;;5012047;28;20032;-64
2022/02/15 05:16:36;;;;;;;34.03;19.38;;;;;;;;;;5012178;28;20113;-64
2022/02/15 05:19:03;;;;;;;32.53;19.48;;;;;;;;;;5011785;28;20139;-66
2022/02/15 05:21:29;;;;;;;32.85;19.10;;;;;;;;;;5011638;28;20018;-64
2022/02/15 05:23:55;;;;;;;31.23;17.95;;;;;;;;;;5011251;28;20030;-63
2022/02/15 05:26:21;;;;;;;32.08;19.65;;;;;;;;;;5011938;28;20025;-64
2022/02/15 05:28:47;;;;;;;36.67;20.63;;;;;;;;;;5011856;28;20108;-65
2022/02/15 05:31:13;;;;;;;38.55;21.60;;;;;;;;;;5011737;28;20026;-64
2022/02/15 05:33:39;;;;;;;37.13;21.40;;;;;;;;;;5011815;28;20038;-65
2022/02/15 05:36:05;;;;;;;37.40;21.13;;;;;;;;;;5011718;28;20026;-65
2022/02/15 05:38:31;;;;;;;35.85;20.83;;;;;;;;;;5011736;28;20124;-65
2022/02/15 05:40:57;;;;;;;34.25;19.40;;;;;;;;;;5012044;28;20022;-65
2022/02/15 05:43:23;;;;;;;33.67;18.88;;;;;;;;;;5011606;28;20029;-65
2022/02/15 05:45:49;;;;;;;35.08;20.10;;;;;;;;;;5011196;28;20503;-64
2022/02/15 05:48:15;;;;;;;38.58;21.45;;;;;;;;;;5011732;28;20398;-65
2022/02/15 05:50:50;;;;;;;37.75;21.98;;;;;;;;;;5011469;28;20034;-64
2022/02/15 05:53:25;;;;;;;40.55;21.88;;;;;;;;;;5011763;28;20045;-65
2022/02/15 05:55:55;;;;;;;;;;;;;;;;;;5012274;28;20376;-66
2022/02/15 05:58:22;;;;;;;34.72;20.55;;;;;;;;;;5011400;28;20277;-64
2022/02/15 06:00:49;;;;;;;40.85;22.67;;;;;;;;;;5011160;28;20109;-65
2022/02/15 06:06:00;;;;;;;44.38;25.13;;;;;;;;;;5011416;28;20088;-63
2022/02/15 06:08:26;;;;;;;62.75;32.80;;;;;;;;;;5011448;28;20030;-65
2022/02/15 06:10:52;;;;;;;57.05;31.33;;;;;;;;;;5011456;28;20028;-64
2022/02/15 06:13:18;;;;;;;51.53;26.88;;;;;;;;;;5011062;28;20033;-65
2022/02/15 06:15:44;;;;;;;52.70;29.33;;;;;;;;;;5011228;28;20501;-64
2022/02/15 06:18:11;;;;;;;44.40;24.55;;;;;;;;;;5010936;28;20388;-65
2022/02/15 06:20:37;;;;;;;39.17;22.02;;;;;;;;;;5011179;28;20021;-67
2022/02/15 06:23:03;;;;;;;38.13;21.20;;;;;;;;;;5011273;28;20037;-64
2022/02/15 06:25:29;;;;;;;36.38;21.23;;;;;;;;;;5011277;28;20437;-65
2022/02/15 06:27:55;;;;;;;35.80;20.60;;;;;;;;;;5011119;28;20060;-65
2022/02/15 06:30:21;;;;;;;38.20;21.13;;;;;;;;;;5010944;28;20030;-64
2022/02/15 06:32:47;;;;;;;35.03;20.65;;;;;;;;;;5011030;28;20045;-65
2022/02/15 06:35:14;;;;;;;37.30;21.30;;;;;;;;;;5010980;28;20034;-64
2022/02/15 06:37:44;;;;;;;37.63;20.55;;;;;;;;;;5010864;28;20026;-64
2022/02/15 06:40:12;;;;;;;35.03;19.38;;;;;;;;;;5011053;28;20041;-65
2022/02/15 06:42:38;;;;;;;35.95;19.45;;;;;;;;;;5009469;28;20433;-64
2022/02/15 06:45:04;;;;;;;38.15;21.17;;;;;;;;;;5010714;28;20470;-65
2022/02/15 06:47:31;;;;;;;40.53;22.58;;;;;;;;;;5009761;28;20037;-66
2022/02/15 06:49:57;;;;;;;42.58;22.95;;;;;;;;;;5010955;28;20022;-65
2022/02/15 06:52:23;;;;;;;43.67;22.73;;;;;;;;;;5010859;28;20025;-66
2022/02/15 06:54:49;;;;;;;42.35;21.75;;;;;;;;;;5009824;28;20398;-65
2022/02/15 06:57:16;;;;;;;36.97;21.05;;;;;;;;;;5010987;28;20072;-64
2022/02/15 06:59:42;;;;;;;39.28;20.75;;;;;;;;;;5010677;28;20480;-65
2022/02/15 07:02:08;;;;;;;34.65;20.17;;;;;;;;;;5010728;28;20026;-65
2022/02/15 07:04:34;;;;;;;34.92;21.10;;;;;;;;;;5010927;28;20089;-65
2022/02/15 07:07:00;;;;;;;41.45;22.23;;;;;;;;;;5011022;28;20029;-65
2022/02/15 07:09:26;;;;;;;43.97;23.67;;;;;;;;;;5010755;28;20033;-65
2022/02/15 07:11:52;;;;;;;38.92;22.08;;;;;;;;;;5010897;28;20026;-64
2022/02/15 07:14:18;;;;;;;40.92;23.95;;;;;;;;;;5010656;28;20026;-64
2022/02/15 07:16:45;;;;;;;39.17;22.30;;;;;;;;;;5011226;28;20034;-65
2022/02/15 07:19:11;;;;;;;40.50;22.50;;;;;;;;;;5010768;28;20045;-64
2022/02/15 07:21:37;;;;;;;38.70;21.15;;;;;;;;;;5010541;28;20029;-65
2022/02/15 07:24:04;;;;;;;36.85;20.83;;;;;;;;;;5011535;28;20030;-65
2022/02/15 07:26:30;;;;;;;36.22;20.40;;;;;;;;;;5014688;28;20101;-65
2022/02/15 07:28:56;;;;;;;35.85;20.10;;;;;;;;;;5014263;28;20446;-66
2022/02/15 07:31:23;;;;;;;42.83;21.70;;;;;;;;;;5012804;28;20025;-64
2022/02/15 07:33:49;;;;;;;44.97;23.95;;;;;;;;;;5014210;28;20084;-64
2022/02/15 07:36:15;;;;;;;58.78;29.70;;;;;;;;;;5014028;28;20402;-64
2022/02/15 07:38:41;;;;;;;69.05;33.05;;;;;;;;;;5013896;28;20045;-64
2022/02/15 07:41:07;;;;;;;76.15;34.95;;;;;;;;;;5014057;28;20026;-64
2022/02/15 07:43:33;;;;;;;60.83;30.88;;;;;;;;;;5012922;28;20091;-65
2022/02/15 07:46:00;;;;;;;49.95;26.88;;;;;;;;;;5013749;28;20046;-66
2022/02/15 07:48:26;;;;;;;49.30;24.63;;;;;;;;;;5013706;28;20052;-66
2022/02/15 07:50:52;;;;;;;44.60;22.60;;;;;;;;;;5013786;28;20030;-66
2022/02/15 07:53:18;;;;;;;38.05;21.35;;;;;;;;;;5013602;28;20026;-65
2022/02/15 07:55:44;;;;;;;37.85;22.75;;;;;;;;;;5013974;28;20034;-66
2022/02/15 07:58:10;;;;;;;35.65;21.95;;;;;;;;;;5013451;28;20042;-66
2022/02/15 08:00:36;;;;;;;36.33;21.02;;;;;;;;;;5013189;28;20032;-65
2022/02/15 08:03:03;;;;;;;33.38;18.80;;;;;;;;;;5013712;28;20038;-65
2022/02/15 08:05:29;;;;;;;30.83;17.95;;;;;;;;;;5013471;28;20327;-65
2022/02/15 08:07:56;;;;;;;31.92;19.20;;;;;;;;;;5013131;28;20058;-65
2022/02/15 08:10:23;;;;;;;31.83;17.85;;;;;;;;;;5012783;28;20030;-65
2022/02/15 08:12:55;;;;;;;35.35;17.70;;;;;;;;;;5013141;28;20113;-66
2022/02/15 08:15:28;;;;;;;26.65;16.88;;;;;;;;;;5013476;28;20277;-66
2022/02/15 08:17:53;;;;;;;;;;;;;;;;;;5013424;28;20502;-66
2022/02/15 08:20:19;;;;;;;29.33;16.70;;;;;;;;;;5012962;28;20016;-66
2022/02/15 08:22:46;;;;;;;27.88;16.17;;;;;;;;;;5012535;28;20072;-66
2022/02/15 08:25:12;;;;;;;33.63;19.08;;;;;;;;;;5013104;28;20038;-66
2022/02/15 08:27:38;;;;;;;46.20;27.23;;;;;;;;;;5013126;28;20033;-66
2022/02/15 08:30:04;;;;;;;48.53;28.63;;;;;;;;;;5012622;28;20105;-66
2022/02/15 08:32:30;;;;;;;50.28;28.92;;;;;;;;;;5012840;28;20462;-66
2022/02/15 08:34:56;;;;;;;53.00;30.60;;;;;;;;;;5012805;28;20026;-67
2022/02/15 08:37:22;;;;;;;49.55;28.70;;;;;;;;;;5012522;28;20030;-66
2022/02/15 08:39:49;;;;;;;48.20;26.33;;;;;;;;;;5012576;28;20042;-66
2022/02/15 08:42:15;;;;;;;44.17;25.65;;;;;;;;;;5013043;28;20622;-66
2022/02/15 08:44:41;;;;;;;50.22;26.65;;;;;;;;;;5013007;28;20605;-66
2022/02/15 08:47:08;;;;;;;45.75;24.55;;;;;;;;;;5012328;28;20054;-66
2022/02/15 08:49:35;;;;;;;49.13;27.25;;;;;;;;;;5012851;28;20398;-65
2022/02/15 08:52:01;;;;;;;52.10;28.00;;;;;;;;;;5012493;28;20375;-66
2022/02/15 08:54:27;;;;;;;49.22;27.40;;;;;;;;;;5012380;28;20058;-66
2022/02/15 08:56:53;;;;;;;55.47;29.92;;;;;;;;;;5012672;28;20026;-65
2022/02/15 08:59:20;;;;;;;54.65;31.70;;;;;;;;;;5012029;28;20044;-66
2022/02/15 09:01:47;;;;;;;54.80;30.77;;;;;;;;;;5012300;28;20028;-66
2022/02/15 09:04:14;;;;;;;53.17;30.35;;;;;;;;;;5012397;28;20556;-66
2022/02/15 09:06:41;;;;;;;58.08;32.88;;;;;;;;;;5012193;28;20108;-66
2022/02/15 09:09:08;;;;;;;55.80;32.30;;;;;;;;;;5012468;28;20022;-66
2022/02/15 09:11:34;;;;;;;55.70;31.15;;;;;;;;;;5012213;28;20022;-67
2022/02/15 09:14:00;;;;;;;61.78;35.20;;;;;;;;;;5012335;28;20056;-66
2022/02/15 09:16:26;;;;;;;70.50;37.05;;;;;;;;;;5012308;28;20026;-66
2022/02/15 09:18:52;;;;;;;67.55;36.80;;;;;;;;;;5012106;28;20049;-66
2022/02/15 09:21:18;;;;;;;59.55;31.15;;;;;;;;;;5012218;28;20021;-66
2022/02/15 09:23:44;;;;;;;49.75;27.15;;;;;;;;;;5012079;28;20064;-66
2022/02/15 09:26:11;;;;;;;39.28;22.70;;;;;;;;;;5012349;28;20072;-65
2022/02/15 09:28:37;;;;;;;37.63;21.63;;;;;;;;;;5011892;28;20036;-64
2022/02/15 09:31:04;;;;;;;33.00;18.95;;;;;;;;;;5011978;28;20026;-66
2022/02/15 09:33:31;;;;;;;35.47;18.80;;;;;;;;;;5011602;28;20080;-66
2022/02/15 09:35:57;;;;;;;32.97;18.80;;;;;;;;;;5011671;28;20097;-66
2022/02/15 09:38:23;;;;;;;30.25;17.90;;;;;;;;;;5011341;28;20080;-64
2022/02/15 09:40:50;;;;;;;34.75;18.98;;;;;;;;;;5010859;28;20430;-66
2022/02/15 09:43:16;;;;;;;33.55;18.25;;;;;;;;;;5010548;28;20030;-65
2022/02/15 09:45:49;;;;;;;31.40;17.08;;;;;;;;;;5010569;28;20057;-65
2022/02/15 09:48:18;;;;;;;32.17;18.23;;;;;;;;;;5011304;28;20112;-65
2022/02/15 09:50:45;;;;;;;33.85;18.40;;;;;;;;;;5011721;28;20030;-65
2022/02/15 09:53:11;;;;;;;29.67;17.05;;;;;;;;;;5011387;28;20022;-65
2022/02/15 09:55:37;;;;;;;33.58;18.20;;;;;;;;;;5011530;28;20057;-65
2022/02/15 09:58:04;;;;;;;37.95;21.77;;;;;;;;;;5011579;28;20100;-65
2022/02/15 10:00:30;;;;;;;36.63;20.08;;;;;;;;;;5011645;28;20029;-66
2022/02/15 10:02:57;;;;;;;30.00;16.77;;;;;;;;;;5011509;28;20022;-65
2022/02/15 10:05:30;;;;;;;29.85;16.58;;;;;;;;;;5010282;28;20030;-65
2022/02/15 10:07:57;;;;;;;24.98;13.35;;;;;;;;;;5011282;28;20030;-65
2022/02/15 10:10:27;;;;;;;24.73;13.75;;;;;;;;;;5010356;28;20383;-65
2022/02/15 10:13:01;;;;;;;26.85;13.73;;;;;;;;;;5011151;28;20487;-66
2022/02/15 10:15:36;;;;;;;25.48;12.18;;;;;;;;;;5011489;28;20026;-66
2022/02/15 10:18:27;;;;;;;13.43;6.90;;;;;;;;;;5011307;28;20168;-66
2022/02/15 10:20:54;;;;;;;10.40;5.85;;;;;;;;;;5028666;28;20033;-65
2022/02/15 10:23:22;;;;;;;18.98;7.18;;;;;;;;;;5028515;28;20162;-66
2022/02/15 10:25:49;;;;;;;9.68;5.10;;;;;;;;;;5028552;28;20029;-66
2022/02/15 10:28:17;;;;;;;11.55;4.43;;;;;;;;;;5028713;28;20459;-66
2022/02/15 10:30:53;;;;;;;6.80;4.07;;;;;;;;;;5028579;28;20030;-66
2022/02/15 10:33:20;;;;;;;13.63;5.50;;;;;;;;;;5028366;28;20442;-66
2022/02/15 10:35:56;;;;;;;12.25;6.60;;;;;;;;;;5028442;28;20029;-66
2022/02/15 10:38:28;;;;;;;10.43;3.92;;;;;;;;;;5028332;28;20076;-66
2022/02/15 10:40:57;;;;;;;11.68;4.43;;;;;;;;;;5028456;28;20030;-65
2022/02/15 10:43:23;;;;;;;9.38;4.10;;;;;;;;;;5028592;28;20021;-66
2022/02/15 10:45:49;;;;;;;9.82;4.40;;;;;;;;;;5028051;28;20053;-66
2022/02/15 10:48:15;;;;;;;8.02;3.75;;;;;;;;;;5027958;28;20502;-65
2022/02/15 10:50:42;;;;;;;10.40;3.38;;;;;;;;;;5028102;28;20169;-66
2022/02/15 10:53:08;;;;;;;5.80;3.08;;;;;;;;;;5027985;28;20030;-66
2022/02/15 10:55:34;;;;;;;5.40;3.28;;;;;;;;;;5028229;28;20027;-65
2022/02/15 10:58:01;;;;;;;11.73;5.28;;;;;;;;;;5018799;28;20161;-65
2022/02/15 11:00:28;;;;;;;5.93;3.15;;;;;;;;;;5013679;28;20466;-64
2022/02/15 11:02:54;;;;;;;7.28;3.15;;;;;;;;;;5014461;28;20030;-65
2022/02/15 11:05:20;;;;;;;6.32;3.15;;;;;;;;;;5014667;28;20445;-65
2022/02/15 11:07:46;;;;;;;6.43;3.28;;;;;;;;;;5014407;28;20037;-66
2022/02/15 11:10:16;;;;;;;7.95;3.35;;;;;;;;;;5014594;28;20029;-64
2022/02/15 11:12:42;;;;;;;10.23;4.03;;;;;;;;;;5014291;28;20041;-63
2022/02/15 11:15:08;;;;;;;9.60;3.97;;;;;;;;;;5014294;28;20034;-64
2022/02/15 11:17:34;;;;;;;8.27;3.30;;;;;;;;;;5014583;28;20122;-63
2022/02/15 11:20:01;;;;;;;7.10;3.10;;;;;;;;;;5014364;28;20052;-64
2022/02/15 11:22:27;;;;;;;7.57;2.63;;;;;;;;;;5013893;28;20024;-66
2022/02/15 11:24:53;;;;;;;5.22;2.88;;;;;;;;;;5014185;28;20041;-66
2022/02/15 11:27:20;;;;;;;7.47;3.10;;;;;;;;;;5013899;28;20046;-63
2022/02/15 11:29:50;;;;;;;6.72;2.92;;;;;;;;;;5014096;28;20026;-65
2022/02/15 11:32:22;;;;;;;5.15;2.63;;;;;;;;;;5014018;28;20060;-65
2022/02/15 11:34:48;;;;;;;8.88;4.38;;;;;;;;;;5014174;28;20038;-65
2022/02/15 11:37:19;;;;;;;7.63;3.22;;;;;;;;;;5014012;28;20036;-66
2022/02/15 11:39:56;;;;;;;5.68;2.97;;;;;;;;;;5013893;28;20410;-65
2022/02/15 11:42:22;;;;;;;6.53;2.75;;;;;;;;;;5013932;28;20087;-65
2022/02/15 11:44:48;;;;;;;6.63;2.97;;;;;;;;;;5013686;28;20057;-65
2022/02/15 11:47:23;;;;;;;6.38;3.50;;;;;;;;;;5013654;28;20049;-66
2022/02/15 11:49:52;;;;;;;9.50;3.20;;;;;;;;;;5013702;28;20144;-65
2022/02/15 11:52:18;;;;;;;7.88;3.13;;;;;;;;;;5014150;28;20032;-66
2022/02/15 11:54:44;;;;;;;5.57;2.92;;;;;;;;;;5014368;28;20531;-66
2022/02/15 11:57:11;;;;;;;10.13;3.75;;;;;;;;;;5013740;28;20054;-65
2022/02/15 11:59:37;;;;;;;5.78;3.20;;;;;;;;;;5013574;28;20549;-65
2022/02/15 12:02:07;;;;;;;5.63;3.00;;;;;;;;;;5013574;28;20087;-65
2022/02/15 12:04:33;;;;;;;5.35;2.75;;;;;;;;;;5013423;28;20025;-65
2022/02/15 12:07:00;;;;;;;8.18;3.45;;;;;;;;;;5013326;28;20030;-65
2022/02/15 12:09:30;;;;;;;8.48;3.25;;;;;;;;;;5013400;28;20115;-65
2022/02/15 12:11:58;;;;;;;4.88;2.60;;;;;;;;;;5012093;28;20061;-65
2022/02/15 12:14:25;;;;;;;5.93;3.10;;;;;;;;;;5013269;28;20042;-65
2022/02/15 12:17:01;;;;;;;10.45;2.90;;;;;;;;;;5013146;28;20486;-65
2022/02/15 12:19:31;;;;;;;6.50;2.70;;;;;;;;;;5013084;28;20033;-65
2022/02/15 12:21:58;;;;;;;6.85;2.70;;;;;;;;;;5012857;28;20080;-65
2022/02/15 12:24:25;;;;;;;3.88;2.30;;;;;;;;;;5013089;28;20040;-65
2022/02/15 12:26:51;;;;;;;6.82;2.67;;;;;;;;;;5012069;28;20403;-65
2022/02/15 12:29:17;;;;;;;3.60;2.58;;;;;;;;;;5012713;28;20176;-65
2022/02/15 12:31:44;;;;;;;8.07;2.78;;;;;;;;;;5012789;28;20471;-66
2022/02/15 12:34:11;;;;;;;9.38;2.90;;;;;;;;;;5013117;28;20034;-65
2022/02/15 12:36:37;;;;;;;9.82;3.28;;;;;;;;;;5013023;28;20022;-65
2022/02/15 12:39:04;;;;;;;6.57;3.00;;;;;;;;;;5012747;28;20034;-65
2022/02/15 12:41:33;;;;;;;7.03;3.80;;;;;;;;;;5012592;28;20053;-65
2022/02/15 12:44:00;;;;;;;4.65;2.45;;;;;;;;;;5012769;28;20476;-65
2022/02/15 12:46:28;;;;;;;5.85;3.10;;;;;;;;;;5012454;28;20050;-65
2022/02/15 12:48:55;;;;;;;6.72;3.60;;;;;;;;;;5012672;28;20026;-66
2022/02/15 12:51:22;;;;;;;5.95;3.35;;;;;;;;;;5012839;28;20022;-65
2022/02/15 12:53:52;;;;;;;7.80;3.47;;;;;;;;;;5012543;28;20387;-65
2022/02/15 12:56:25;;;;;;;7.10;3.55;;;;;;;;;;5012556;28;20109;-65
2022/02/15 12:58:53;;;;;;;6.43;3.70;;;;;;;;;;5012647;28;20040;-66
2022/02/15 13:01:19;;;;;;;6.18;2.88;;;;;;;;;;5012349;28;20032;-65
2022/02/15 13:03:48;;;;;;;9.68;3.15;;;;;;;;;;5012396;28;20022;-65
2022/02/15 13:06:15;;;;;;;6.93;3.30;;;;;;;;;;5012202;28;20490;-65
2022/02/15 13:08:45;;;;;;;8.27;3.80;;;;;;;;;;5012328;28;20034;-65
2022/02/15 13:11:12;;;;;;;6.95;3.45;;;;;;;;;;5012446;28;20053;-65
2022/02/15 13:13:39;;;;;;;11.50;3.70;;;;;;;;;;5012384;28;20026;-65
2022/02/15 13:16:06;;;;;;;8.25;4.13;;;;;;;;;;5011728;28;20474;-65
2022/02/15 13:18:45;;;;;;;7.50;3.80;;;;;;;;;;5012413;28;20124;-65
2022/02/15 13:21:12;;;;;;;6.70;3.83;;;;;;;;;;5012119;28;20026;-65
2022/02/15 13:23:38;;;;;;;9.02;4.50;;;;;;;;;;5011890;28;20026;-65
2022/02/15 13:26:10;;;;;;;8.10;4.30;;;;;;;;;;5012264;28;20025;-65
2022/02/15 13:28:43;;;;;;;8.23;3.95;;;;;;;;;;5012076;28;20470;-65
2022/02/15 13:31:10;;;;;;;7.32;3.35;;;;;;;;;;5011917;28;20022;-65
2022/02/15 13:33:40;;;;;;;7.30;3.60;;;;;;;;;;5012030;28;20478;-66
2022/02/15 13:36:06;;;;;;;7.35;3.38;;;;;;;;;;5011965;28;20022;-66
2022/02/15 13:38:32;;;;;;;9.25;4.07;;;;;;;;;;5011881;28;20033;-66
2022/02/15 13:40:58;;;;;;;9.45;4.97;;;;;;;;;;5011966;28;20044;-64
2022/02/15 13:43:28;;;;;;;10.68;5.18;;;;;;;;;;5011448;28;20030;-65
2022/02/15 13:45:54;;;;;;;9.90;5.75;;;;;;;;;;5011629;28;20084;-66
2022/02/15 13:48:21;;;;;;;11.25;5.63;;;;;;;;;;5011848;28;20026;-66
2022/02/15 13:50:47;;;;;;;9.23;5.05;;;;;;;;;;5011649;28;20037;-66
2022/02/15 13:53:14;;;;;;;9.75;5.45;;;;;;;;;;5011570;28;20168;-65
2022/02/15 13:55:40;;;;;;;10.82;4.82;;;;;;;;;;5011817;28;20041;-66
2022/02/15 13:58:06;;;;;;;9.80;4.72;;;;;;;;;;5011569;28;20057;-65
2022/02/15 14:00:32;;;;;;;7.90;4.00;;;;;;;;;;5011421;28;20133;-66
2022/02/15 14:02:58;;;;;;;7.25;4.18;;;;;;;;;;5011567;28;20022;-66
2022/02/15 14:05:25;;;;;;;6.97;4.03;;;;;;;;;;5011387;28;20066;-66
2022/02/15 14:07:51;;;;;;;7.93;3.85;;;;;;;;;;5011445;28;20076;-66
2022/02/15 14:10:17;;;;;;;17.73;4.95;;;;;;;;;;5011345;28;20030;-66
2022/02/15 14:12:44;;;;;;;8.65;4.32;;;;;;;;;;5011311;28;20061;-65
2022/02/15 14:15:15;;;;;;;9.43;4.13;;;;;;;;;;5011327;28;20378;-66
2022/02/15 14:17:42;;;;;;;12.43;4.60;;;;;;;;;;5011292;28;20036;-65
2022/02/15 14:20:09;;;;;;;10.68;4.88;;;;;;;;;;5011330;28;20052;-65
2022/02/15 14:22:35;;;;;;;13.35;4.72;;;;;;;;;;5011116;28;20026;-65
2022/02/15 14:25:02;;;;;;;8.75;4.47;;;;;;;;;;5011438;28;20113;-65
2022/02/15 14:27:28;;;;;;;11.52;4.88;;;;;;;;;;5011147;28;20439;-66
2022/02/15 14:29:54;;;;;;;12.95;5.70;;;;;;;;;;5011499;28;20438;-66